sensor_id;sensor_type;location;lat;lon;timestamp;temperature;humidity
48806;DHT22;34625;47.176;27.548;2023-05-07T00:01:48;23.90;52.60
48806;DHT22;34625;47.176;27.548;2023-05-07T00:04:14;23.80;52.70
48806;DHT22;34625;47.176;27.548;2023-05-07T00:06:40;23.90;53.00
48806;DHT22;34625;47.176;27.548;2023-05-07T00:09:06;23.80;52.50
48806;DHT22;34625;47.176;27.548;2023-05-07T00:11:33;23.80;52.50
48806;DHT22;34625;47.176;27.548;2023-05-07T00:13:59;23.70;52.70
48806;DHT22;34625;47.176;27.548;2023-05-07T00:16:25;23.90;52.80
48806;DHT22;34625;47.176;27.548;2023-05-07T00:18:52;23.70;52.90
48806;DHT22;34625;47.176;27.548;2023-05-07T00:21:18;23.70;52.30
48806;DHT22;34625;47.176;27.548;2023-05-07T00:23:44;23.80;52.50
48806;DHT22;34625;47.176;27.548;2023-05-07T00:26:10;23.70;52.30
48806;DHT22;34625;47.176;27.548;2023-05-07T00:28:36;23.80;51.60
48806;DHT22;34625;47.176;27.548;2023-05-07T00:31:02;23.70;52.00
48806;DHT22;34625;47.176;27.548;2023-05-07T00:33:28;23.70;52.50
48806;DHT22;34625;47.176;27.548;2023-05-07T00:35:54;23.80;52.00
48806;DHT22;34625;47.176;27.548;2023-05-07T00:38:21;23.80;52.30
48806;DHT22;34625;47.176;27.548;2023-05-07T00:40:47;23.90;52.60
48806;DHT22;34625;47.176;27.548;2023-05-07T00:43:13;23.80;52.50
48806;DHT22;34625;47.176;27.548;2023-05-07T00:45:39;23.90;52.60
48806;DHT22;34625;47.176;27.548;2023-05-07T00:48:05;23.80;52.50
48806;DHT22;34625;47.176;27.548;2023-05-07T00:50:32;23.90;52.70
48806;DHT22;34625;47.176;27.548;2023-05-07T00:52:59;23.90;52.70
48806;DHT22;34625;47.176;27.548;2023-05-07T00:55:26;23.80;52.00
48806;DHT22;34625;47.176;27.548;2023-05-07T00:57:52;23.80;52.50
48806;DHT22;34625;47.176;27.548;2023-05-07T01:00:18;23.80;52.60
48806;DHT22;34625;47.176;27.548;2023-05-07T01:02:45;23.80;52.70
48806;DHT22;34625;47.176;27.548;2023-05-07T01:05:14;23.90;52.80
48806;DHT22;34625;47.176;27.548;2023-05-07T01:07:42;23.80;52.80
48806;DHT22;34625;47.176;27.548;2023-05-07T01:10:09;23.70;52.80
48806;DHT22;34625;47.176;27.548;2023-05-07T01:12:37;23.80;52.80
48806;DHT22;34625;47.176;27.548;2023-05-07T01:15:04;23.80;52.60
48806;DHT22;34625;47.176;27.548;2023-05-07T01:17:39;23.90;52.90
48806;DHT22;34625;47.176;27.548;2023-05-07T01:20:09;23.70;52.80
48806;DHT22;34625;47.176;27.548;2023-05-07T01:22:40;23.70;52.80
48806;DHT22;34625;47.176;27.548;2023-05-07T01:25:08;23.70;53.00
48806;DHT22;34625;47.176;27.548;2023-05-07T01:27:36;23.70;52.80
48806;DHT22;34625;47.176;27.548;2023-05-07T01:30:04;23.70;52.90
48806;DHT22;34625;47.176;27.548;2023-05-07T01:32:38;23.60;53.10
48806;DHT22;34625;47.176;27.548;2023-05-07T01:35:10;23.60;53.20
48806;DHT22;34625;47.176;27.548;2023-05-07T01:37:37;23.70;53.40
48806;DHT22;34625;47.176;27.548;2023-05-07T01:40:04;23.60;53.40
48806;DHT22;34625;47.176;27.548;2023-05-07T01:42:31;23.60;53.50
48806;DHT22;34625;47.176;27.548;2023-05-07T01:44:57;23.50;53.50
48806;DHT22;34625;47.176;27.548;2023-05-07T01:47:25;23.60;53.50
48806;DHT22;34625;47.176;27.548;2023-05-07T01:49:51;23.60;53.50
48806;DHT22;34625;47.176;27.548;2023-05-07T01:52:17;23.60;53.40
48806;DHT22;34625;47.176;27.548;2023-05-07T01:54:43;23.50;53.00
48806;DHT22;34625;47.176;27.548;2023-05-07T01:57:09;23.70;53.10
48806;DHT22;34625;47.176;27.548;2023-05-07T01:59:36;23.60;53.20
48806;DHT22;34625;47.176;27.548;2023-05-07T02:02:01;23.50;53.30
48806;DHT22;34625;47.176;27.548;2023-05-07T02:04:29;23.50;53.40
48806;DHT22;34625;47.176;27.548;2023-05-07T02:06:55;23.50;53.30
48806;DHT22;34625;47.176;27.548;2023-05-07T02:09:21;23.30;53.40
48806;DHT22;34625;47.176;27.548;2023-05-07T02:11:49;23.50;53.50
48806;DHT22;34625;47.176;27.548;2023-05-07T02:14:17;23.40;53.30
48806;DHT22;34625;47.176;27.548;2023-05-07T02:16:43;23.40;53.30
48806;DHT22;34625;47.176;27.548;2023-05-07T02:19:12;23.50;53.40
48806;DHT22;34625;47.176;27.548;2023-05-07T02:21:38;23.40;53.20
48806;DHT22;34625;47.176;27.548;2023-05-07T02:24:04;23.50;53.40
48806;DHT22;34625;47.176;27.548;2023-05-07T02:26:30;23.50;53.20
48806;DHT22;34625;47.176;27.548;2023-05-07T02:28:56;23.60;53.10
48806;DHT22;34625;47.176;27.548;2023-05-07T02:31:22;23.70;53.00
48806;DHT22;34625;47.176;27.548;2023-05-07T02:33:48;23.70;52.80
48806;DHT22;34625;47.176;27.548;2023-05-07T02:36:14;23.70;52.80
48806;DHT22;34625;47.176;27.548;2023-05-07T02:38:47;23.70;52.80
48806;DHT22;34625;47.176;27.548;2023-05-07T02:41:13;23.70;52.70
48806;DHT22;34625;47.176;27.548;2023-05-07T02:43:39;23.70;52.60
48806;DHT22;34625;47.176;27.548;2023-05-07T02:46:07;23.70;52.60
48806;DHT22;34625;47.176;27.548;2023-05-07T02:48:37;24.00;52.40
48806;DHT22;34625;47.176;27.548;2023-05-07T02:51:04;23.80;52.50
48806;DHT22;34625;47.176;27.548;2023-05-07T02:53:32;23.80;52.60
48806;DHT22;34625;47.176;27.548;2023-05-07T02:55:59;23.80;52.50
48806;DHT22;34625;47.176;27.548;2023-05-07T02:58:26;23.70;52.40
48806;DHT22;34625;47.176;27.548;2023-05-07T03:00:52;23.70;52.70
48806;DHT22;34625;47.176;27.548;2023-05-07T03:03:40;23.70;52.90
48806;DHT22;34625;47.176;27.548;2023-05-07T03:06:06;23.80;53.00
48806;DHT22;34625;47.176;27.548;2023-05-07T03:08:33;23.60;53.00
48806;DHT22;34625;47.176;27.548;2023-05-07T03:10:59;23.60;53.30
48806;DHT22;34625;47.176;27.548;2023-05-07T03:13:25;23.50;53.00
48806;DHT22;34625;47.176;27.548;2023-05-07T03:15:51;23.50;53.50
48806;DHT22;34625;47.176;27.548;2023-05-07T03:18:17;23.60;53.20
48806;DHT22;34625;47.176;27.548;2023-05-07T03:20:43;23.50;53.30
48806;DHT22;34625;47.176;27.548;2023-05-07T03:23:09;23.40;53.20
48806;DHT22;34625;47.176;27.548;2023-05-07T03:25:36;23.60;53.10
48806;DHT22;34625;47.176;27.548;2023-05-07T03:28:03;23.60;53.30
48806;DHT22;34625;47.176;27.548;2023-05-07T03:30:38;23.50;53.30
48806;DHT22;34625;47.176;27.548;2023-05-07T03:33:04;23.60;53.20
48806;DHT22;34625;47.176;27.548;2023-05-07T03:35:30;23.60;53.30
48806;DHT22;34625;47.176;27.548;2023-05-07T03:37:56;23.60;53.30
48806;DHT22;34625;47.176;27.548;2023-05-07T03:40:22;23.50;53.30
48806;DHT22;34625;47.176;27.548;2023-05-07T03:42:53;23.70;53.30
48806;DHT22;34625;47.176;27.548;2023-05-07T03:45:21;23.60;53.00
48806;DHT22;34625;47.176;27.548;2023-05-07T03:47:57;23.70;53.10
48806;DHT22;34625;47.176;27.548;2023-05-07T03:50:23;23.70;53.10
48806;DHT22;34625;47.176;27.548;2023-05-07T03:52:49;23.60;52.90
48806;DHT22;34625;47.176;27.548;2023-05-07T03:55:18;23.70;52.70
48806;DHT22;34625;47.176;27.548;2023-05-07T03:57:50;23.70;52.90
48806;DHT22;34625;47.176;27.548;2023-05-07T04:00:16;23.60;53.00
48806;DHT22;34625;47.176;27.548;2023-05-07T04:02:48;23.60;52.80
48806;DHT22;34625;47.176;27.548;2023-05-07T04:05:19;23.40;53.30
48806;DHT22;34625;47.176;27.548;2023-05-07T04:07:48;23.40;53.60
48806;DHT22;34625;47.176;27.548;2023-05-07T04:10:19;23.40;53.70
48806;DHT22;34625;47.176;27.548;2023-05-07T04:12:47;23.40;53.70
48806;DHT22;34625;47.176;27.548;2023-05-07T04:15:18;23.30;53.70
48806;DHT22;34625;47.176;27.548;2023-05-07T04:17:44;23.30;53.80
48806;DHT22;34625;47.176;27.548;2023-05-07T04:20:15;23.20;53.90
48806;DHT22;34625;47.176;27.548;2023-05-07T04:22:42;23.20;54.00
48806;DHT22;34625;47.176;27.548;2023-05-07T04:25:09;23.00;53.90
48806;DHT22;34625;47.176;27.548;2023-05-07T04:27:36;23.20;54.00
48806;DHT22;34625;47.176;27.548;2023-05-07T04:30:04;23.20;54.10
48806;DHT22;34625;47.176;27.548;2023-05-07T04:32:34;23.20;54.00
48806;DHT22;34625;47.176;27.548;2023-05-07T04:35:02;23.20;53.90
48806;DHT22;34625;47.176;27.548;2023-05-07T04:37:28;23.30;53.80
48806;DHT22;34625;47.176;27.548;2023-05-07T04:39:54;23.20;53.60
48806;DHT22;34625;47.176;27.548;2023-05-07T04:42:22;23.30;53.80
48806;DHT22;34625;47.176;27.548;2023-05-07T04:44:53;23.30;53.60
48806;DHT22;34625;47.176;27.548;2023-05-07T04:47:19;23.20;53.50
48806;DHT22;34625;47.176;27.548;2023-05-07T04:49:46;23.20;53.50
48806;DHT22;34625;47.176;27.548;2023-05-07T04:52:12;23.20;53.50
48806;DHT22;34625;47.176;27.548;2023-05-07T04:54:38;23.20;53.60
48806;DHT22;34625;47.176;27.548;2023-05-07T04:57:05;23.30;53.40
48806;DHT22;34625;47.176;27.548;2023-05-07T04:59:33;23.20;53.40
48806;DHT22;34625;47.176;27.548;2023-05-07T05:01:59;23.20;53.40
48806;DHT22;34625;47.176;27.548;2023-05-07T05:04:25;23.20;53.50
48806;DHT22;34625;47.176;27.548;2023-05-07T05:06:51;23.10;53.40
48806;DHT22;34625;47.176;27.548;2023-05-07T05:09:17;23.10;53.50
48806;DHT22;34625;47.176;27.548;2023-05-07T05:11:44;23.10;53.50
48806;DHT22;34625;47.176;27.548;2023-05-07T05:14:10;23.20;53.60
48806;DHT22;34625;47.176;27.548;2023-05-07T05:16:36;23.10;53.60
48806;DHT22;34625;47.176;27.548;2023-05-07T05:19:02;23.00;53.60
48806;DHT22;34625;47.176;27.548;2023-05-07T05:21:31;23.10;53.60
48806;DHT22;34625;47.176;27.548;2023-05-07T05:24:03;23.10;53.40
48806;DHT22;34625;47.176;27.548;2023-05-07T05:26:29;23.10;53.40
48806;DHT22;34625;47.176;27.548;2023-05-07T05:28:56;23.20;53.40
48806;DHT22;34625;47.176;27.548;2023-05-07T05:31:23;23.10;53.30
48806;DHT22;34625;47.176;27.548;2023-05-07T05:33:50;23.30;53.20
48806;DHT22;34625;47.176;27.548;2023-05-07T05:36:17;23.30;53.20
48806;DHT22;34625;47.176;27.548;2023-05-07T05:38:44;23.20;53.10
48806;DHT22;34625;47.176;27.548;2023-05-07T05:41:11;23.30;53.20
48806;DHT22;34625;47.176;27.548;2023-05-07T05:43:37;23.40;53.10
48806;DHT22;34625;47.176;27.548;2023-05-07T05:46:03;23.30;53.10
48806;DHT22;34625;47.176;27.548;2023-05-07T05:48:30;23.30;53.00
48806;DHT22;34625;47.176;27.548;2023-05-07T05:50:58;23.40;53.00
48806;DHT22;34625;47.176;27.548;2023-05-07T05:53:24;23.30;47.20
48806;DHT22;34625;47.176;27.548;2023-05-07T05:55:50;23.30;43.90
48806;DHT22;34625;47.176;27.548;2023-05-07T05:58:17;23.30;42.70
48806;DHT22;34625;47.176;27.548;2023-05-07T06:00:50;23.40;44.10
48806;DHT22;34625;47.176;27.548;2023-05-07T06:03:19;23.40;45.80
48806;DHT22;34625;47.176;27.548;2023-05-07T06:05:45;23.60;47.20
48806;DHT22;34625;47.176;27.548;2023-05-07T06:08:11;23.60;45.40
48806;DHT22;34625;47.176;27.548;2023-05-07T06:10:37;23.70;47.50
48806;DHT22;34625;47.176;27.548;2023-05-07T06:13:05;23.80;40.20
48806;DHT22;34625;47.176;27.548;2023-05-07T06:15:33;23.90;40.00
48806;DHT22;34625;47.176;27.548;2023-05-07T06:18:04;24.00;44.10
48806;DHT22;34625;47.176;27.548;2023-05-07T06:20:31;24.10;49.30
48806;DHT22;34625;47.176;27.548;2023-05-07T06:22:58;24.00;43.50
48806;DHT22;34625;47.176;27.548;2023-05-07T06:25:24;24.10;45.80
48806;DHT22;34625;47.176;27.548;2023-05-07T06:27:50;24.20;48.50
48806;DHT22;34625;47.176;27.548;2023-05-07T06:30:16;24.10;45.00
48806;DHT22;34625;47.176;27.548;2023-05-07T06:32:42;24.40;45.60
48806;DHT22;34625;47.176;27.548;2023-05-07T06:35:10;24.30;46.70
48806;DHT22;34625;47.176;27.548;2023-05-07T06:37:38;24.30;47.80
48806;DHT22;34625;47.176;27.548;2023-05-07T06:40:07;24.50;48.90
48806;DHT22;34625;47.176;27.548;2023-05-07T06:42:38;24.50;51.20
48806;DHT22;34625;47.176;27.548;2023-05-07T06:45:21;24.60;52.20
48806;DHT22;34625;47.176;27.548;2023-05-07T06:47:48;24.50;52.80
48806;DHT22;34625;47.176;27.548;2023-05-07T06:50:14;24.70;51.20
48806;DHT22;34625;47.176;27.548;2023-05-07T06:52:43;24.60;51.10
48806;DHT22;34625;47.176;27.548;2023-05-07T06:55:10;24.50;51.20
48806;DHT22;34625;47.176;27.548;2023-05-07T06:57:37;24.40;53.00
48806;DHT22;34625;47.176;27.548;2023-05-07T07:00:04;24.60;54.80
48806;DHT22;34625;47.176;27.548;2023-05-07T07:02:40;24.60;52.30
48806;DHT22;34625;47.176;27.548;2023-05-07T07:05:06;24.60;49.70
48806;DHT22;34625;47.176;27.548;2023-05-07T07:07:32;24.50;49.50
48806;DHT22;34625;47.176;27.548;2023-05-07T07:09:59;24.30;47.90
48806;DHT22;34625;47.176;27.548;2023-05-07T07:12:25;24.40;47.10
48806;DHT22;34625;47.176;27.548;2023-05-07T07:14:52;24.50;46.10
48806;DHT22;34625;47.176;27.548;2023-05-07T07:17:18;24.40;46.40
48806;DHT22;34625;47.176;27.548;2023-05-07T07:19:45;24.30;46.60
48806;DHT22;34625;47.176;27.548;2023-05-07T07:22:11;24.30;46.60
48806;DHT22;34625;47.176;27.548;2023-05-07T07:24:39;24.30;47.40
48806;DHT22;34625;47.176;27.548;2023-05-07T07:27:07;24.30;47.30
48806;DHT22;34625;47.176;27.548;2023-05-07T07:29:34;24.30;46.70
48806;DHT22;34625;47.176;27.548;2023-05-07T07:32:01;24.30;47.50
48806;DHT22;34625;47.176;27.548;2023-05-07T07:34:27;24.40;47.10
48806;DHT22;34625;47.176;27.548;2023-05-07T07:36:53;24.40;45.80
48806;DHT22;34625;47.176;27.548;2023-05-07T07:39:19;24.30;44.90
48806;DHT22;34625;47.176;27.548;2023-05-07T07:41:48;24.50;44.40
48806;DHT22;34625;47.176;27.548;2023-05-07T07:44:15;24.50;44.90
48806;DHT22;34625;47.176;27.548;2023-05-07T07:46:41;24.40;44.90
48806;DHT22;34625;47.176;27.548;2023-05-07T07:49:08;24.60;44.30
48806;DHT22;34625;47.176;27.548;2023-05-07T07:51:34;24.50;43.50
48806;DHT22;34625;47.176;27.548;2023-05-07T07:54:01;24.50;43.60
48806;DHT22;34625;47.176;27.548;2023-05-07T07:56:32;24.50;43.60
48806;DHT22;34625;47.176;27.548;2023-05-07T07:58:59;24.50;43.40
48806;DHT22;34625;47.176;27.548;2023-05-07T08:01:26;24.50;43.50
48806;DHT22;34625;47.176;27.548;2023-05-07T08:03:52;24.50;43.20
48806;DHT22;34625;47.176;27.548;2023-05-07T08:06:19;24.50;42.80
48806;DHT22;34625;47.176;27.548;2023-05-07T08:08:45;24.40;42.20
48806;DHT22;34625;47.176;27.548;2023-05-07T08:11:11;24.50;43.10
48806;DHT22;34625;47.176;27.548;2023-05-07T08:13:38;24.50;43.00
48806;DHT22;34625;47.176;27.548;2023-05-07T08:16:05;24.40;42.90
48806;DHT22;34625;47.176;27.548;2023-05-07T08:18:32;24.60;42.70
48806;DHT22;34625;47.176;27.548;2023-05-07T08:21:01;24.60;37.80
48806;DHT22;34625;47.176;27.548;2023-05-07T08:23:27;24.50;42.60
48806;DHT22;34625;47.176;27.548;2023-05-07T08:25:53;24.50;43.50
48806;DHT22;34625;47.176;27.548;2023-05-07T08:28:20;24.50;43.60
48806;DHT22;34625;47.176;27.548;2023-05-07T08:30:48;24.60;44.00
48806;DHT22;34625;47.176;27.548;2023-05-07T08:33:14;24.60;44.10
48806;DHT22;34625;47.176;27.548;2023-05-07T08:35:40;24.50;43.40
48806;DHT22;34625;47.176;27.548;2023-05-07T08:38:07;24.70;44.70
48806;DHT22;34625;47.176;27.548;2023-05-07T08:40:38;24.60;42.10
48806;DHT22;34625;47.176;27.548;2023-05-07T08:43:07;24.70;45.20
48806;DHT22;34625;47.176;27.548;2023-05-07T08:45:39;24.50;45.30
48806;DHT22;34625;47.176;27.548;2023-05-07T08:48:15;24.60;45.70
48806;DHT22;34625;47.176;27.548;2023-05-07T08:50:44;24.50;45.80
48806;DHT22;34625;47.176;27.548;2023-05-07T08:53:12;24.60;45.90
48806;DHT22;34625;47.176;27.548;2023-05-07T08:55:39;24.60;46.00
48806;DHT22;34625;47.176;27.548;2023-05-07T08:58:05;24.60;46.00
48806;DHT22;34625;47.176;27.548;2023-05-07T09:00:36;24.50;45.80
48806;DHT22;34625;47.176;27.548;2023-05-07T09:03:03;24.70;45.80
48806;DHT22;34625;47.176;27.548;2023-05-07T09:05:29;24.70;46.30
48806;DHT22;34625;47.176;27.548;2023-05-07T09:07:55;24.70;44.80
48806;DHT22;34625;47.176;27.548;2023-05-07T09:10:22;24.70;46.30
48806;DHT22;34625;47.176;27.548;2023-05-07T09:12:50;24.70;45.80
48806;DHT22;34625;47.176;27.548;2023-05-07T09:15:18;24.50;46.10
48806;DHT22;34625;47.176;27.548;2023-05-07T09:17:44;24.60;46.70
48806;DHT22;34625;47.176;27.548;2023-05-07T09:20:10;24.50;46.70
48806;DHT22;34625;47.176;27.548;2023-05-07T09:22:37;24.70;46.10
48806;DHT22;34625;47.176;27.548;2023-05-07T09:25:07;24.70;45.60
48806;DHT22;34625;47.176;27.548;2023-05-07T09:27:36;24.60;45.10
48806;DHT22;34625;47.176;27.548;2023-05-07T09:30:06;24.60;44.60
48806;DHT22;34625;47.176;27.548;2023-05-07T09:32:37;24.60;44.20
48806;DHT22;34625;47.176;27.548;2023-05-07T09:35:17;24.60;45.60
48806;DHT22;34625;47.176;27.548;2023-05-07T09:37:47;24.60;48.20
48806;DHT22;34625;47.176;27.548;2023-05-07T09:40:24;24.70;47.30
48806;DHT22;34625;47.176;27.548;2023-05-07T09:42:52;24.70;43.90
48806;DHT22;34625;47.176;27.548;2023-05-07T09:45:29;24.70;42.90
48806;DHT22;34625;47.176;27.548;2023-05-07T09:47:58;24.40;44.70
48806;DHT22;34625;47.176;27.548;2023-05-07T09:50:35;24.50;50.10
48806;DHT22;34625;47.176;27.548;2023-05-07T09:53:03;24.50;52.30
48806;DHT22;34625;47.176;27.548;2023-05-07T09:55:31;24.70;55.00
48806;DHT22;34625;47.176;27.548;2023-05-07T09:57:57;24.70;57.30
48806;DHT22;34625;47.176;27.548;2023-05-07T10:00:26;24.70;55.10
48806;DHT22;34625;47.176;27.548;2023-05-07T10:03:01;25.00;52.60
48806;DHT22;34625;47.176;27.548;2023-05-07T10:05:40;25.30;43.80
48806;DHT22;34625;47.176;27.548;2023-05-07T10:08:09;25.30;42.00
48806;DHT22;34625;47.176;27.548;2023-05-07T10:10:37;25.30;43.60
48806;DHT22;34625;47.176;27.548;2023-05-07T10:13:07;25.20;42.90
48806;DHT22;34625;47.176;27.548;2023-05-07T10:15:38;25.40;43.60
48806;DHT22;34625;47.176;27.548;2023-05-07T10:18:06;25.50;42.80
48806;DHT22;34625;47.176;27.548;2023-05-07T10:20:34;25.40;41.30
48806;DHT22;34625;47.176;27.548;2023-05-07T10:23:04;25.40;41.80
48806;DHT22;34625;47.176;27.548;2023-05-07T10:25:37;25.50;41.20
48806;DHT22;34625;47.176;27.548;2023-05-07T10:28:11;25.40;40.00
48806;DHT22;34625;47.176;27.548;2023-05-07T10:31:23;25.50;41.40
48806;DHT22;34625;47.176;27.548;2023-05-07T10:33:54;25.70;44.70
48806;DHT22;34625;47.176;27.548;2023-05-07T10:36:23;25.80;47.20
48806;DHT22;34625;47.176;27.548;2023-05-07T10:38:52;25.90;46.50
48806;DHT22;34625;47.176;27.548;2023-05-07T10:41:18;25.90;43.70
48806;DHT22;34625;47.176;27.548;2023-05-07T10:43:45;26.00;46.00
48806;DHT22;34625;47.176;27.548;2023-05-07T10:46:20;26.00;40.10
48806;DHT22;34625;47.176;27.548;2023-05-07T10:49:18;25.90;38.60
48806;DHT22;34625;47.176;27.548;2023-05-07T10:52:13;25.90;39.60
48806;DHT22;34625;47.176;27.548;2023-05-07T10:54:45;25.80;46.40
48806;DHT22;34625;47.176;27.548;2023-05-07T11:05:38;25.70;48.60
48806;DHT22;34625;47.176;27.548;2023-05-07T11:08:12;25.80;44.10
48806;DHT22;34625;47.176;27.548;2023-05-07T11:10:59;25.70;44.90
48806;DHT22;34625;47.176;27.548;2023-05-07T11:13:51;25.70;44.90
48806;DHT22;34625;47.176;27.548;2023-05-07T11:16:49;25.60;46.50
48806;DHT22;34625;47.176;27.548;2023-05-07T11:19:52;25.60;47.80
48806;DHT22;34625;47.176;27.548;2023-05-07T11:22:54;25.40;47.00
48806;DHT22;34625;47.176;27.548;2023-05-07T11:25:42;25.50;46.80
48806;DHT22;34625;47.176;27.548;2023-05-07T11:28:21;25.50;47.00
48806;DHT22;34625;47.176;27.548;2023-05-07T11:31:00;25.40;49.30
48806;DHT22;34625;47.176;27.548;2023-05-07T11:33:26;25.50;50.30
48806;DHT22;34625;47.176;27.548;2023-05-07T11:35:53;25.60;47.60
48806;DHT22;34625;47.176;27.548;2023-05-07T11:38:22;25.60;41.00
48806;DHT22;34625;47.176;27.548;2023-05-07T11:40:53;25.50;40.30
48806;DHT22;34625;47.176;27.548;2023-05-07T11:43:19;25.50;47.20
48806;DHT22;34625;47.176;27.548;2023-05-07T11:45:46;25.40;47.80
48806;DHT22;34625;47.176;27.548;2023-05-07T11:48:13;25.40;49.10
48806;DHT22;34625;47.176;27.548;2023-05-07T11:50:54;25.30;48.20
48806;DHT22;34625;47.176;27.548;2023-05-07T11:53:20;25.30;49.70
48806;DHT22;34625;47.176;27.548;2023-05-07T11:55:55;25.20;49.60
48806;DHT22;34625;47.176;27.548;2023-05-07T11:58:23;25.20;50.10
48806;DHT22;34625;47.176;27.548;2023-05-07T12:00:50;25.30;50.60
48806;DHT22;34625;47.176;27.548;2023-05-07T12:03:16;25.30;50.80
48806;DHT22;34625;47.176;27.548;2023-05-07T12:05:44;25.30;49.40
48806;DHT22;34625;47.176;27.548;2023-05-07T12:08:17;25.20;48.80
48806;DHT22;34625;47.176;27.548;2023-05-07T12:10:44;25.20;49.30
48806;DHT22;34625;47.176;27.548;2023-05-07T12:13:18;25.20;50.90
48806;DHT22;34625;47.176;27.548;2023-05-07T12:15:44;25.20;51.20
48806;DHT22;34625;47.176;27.548;2023-05-07T12:18:11;25.20;51.30
48806;DHT22;34625;47.176;27.548;2023-05-07T12:20:38;25.10;51.10
48806;DHT22;34625;47.176;27.548;2023-05-07T12:23:05;25.10;51.30
48806;DHT22;34625;47.176;27.548;2023-05-07T12:25:35;25.00;51.40
48806;DHT22;34625;47.176;27.548;2023-05-07T12:28:05;25.10;49.10
48806;DHT22;34625;47.176;27.548;2023-05-07T12:30:42;25.00;50.90
48806;DHT22;34625;47.176;27.548;2023-05-07T12:33:08;25.10;51.40
48806;DHT22;34625;47.176;27.548;2023-05-07T12:35:40;25.00;51.10
48806;DHT22;34625;47.176;27.548;2023-05-07T12:38:15;25.00;51.10
48806;DHT22;34625;47.176;27.548;2023-05-07T12:40:54;24.90;50.30
48806;DHT22;34625;47.176;27.548;2023-05-07T12:43:24;25.00;49.70
48806;DHT22;34625;47.176;27.548;2023-05-07T12:45:51;24.80;50.90
48806;DHT22;34625;47.176;27.548;2023-05-07T12:48:17;24.80;50.90
48806;DHT22;34625;47.176;27.548;2023-05-07T12:50:44;24.90;51.60
48806;DHT22;34625;47.176;27.548;2023-05-07T12:53:11;24.80;51.30
48806;DHT22;34625;47.176;27.548;2023-05-07T12:55:48;24.90;51.40
48806;DHT22;34625;47.176;27.548;2023-05-07T12:58:35;25.00;51.80
48806;DHT22;34625;47.176;27.548;2023-05-07T13:01:05;24.80;51.30
48806;DHT22;34625;47.176;27.548;2023-05-07T13:03:35;25.00;50.10
48806;DHT22;34625;47.176;27.548;2023-05-07T13:06:03;24.70;50.50
48806;DHT22;34625;47.176;27.548;2023-05-07T13:08:35;24.90;52.10
48806;DHT22;34625;47.176;27.548;2023-05-07T13:11:03;24.80;52.00
48806;DHT22;34625;47.176;27.548;2023-05-07T13:13:30;24.70;52.00
48806;DHT22;34625;47.176;27.548;2023-05-07T13:15:56;24.70;52.00
48806;DHT22;34625;47.176;27.548;2023-05-07T13:18:24;24.80;51.60
48806;DHT22;34625;47.176;27.548;2023-05-07T13:20:51;24.70;51.90
48806;DHT22;34625;47.176;27.548;2023-05-07T13:23:17;24.60;51.90
48806;DHT22;34625;47.176;27.548;2023-05-07T13:25:43;24.70;50.30
48806;DHT22;34625;47.176;27.548;2023-05-07T13:28:09;24.60;51.20
48806;DHT22;34625;47.176;27.548;2023-05-07T13:30:35;24.50;52.00
48806;DHT22;34625;47.176;27.548;2023-05-07T13:33:01;24.40;51.40
48806;DHT22;34625;47.176;27.548;2023-05-07T13:35:27;24.50;51.40
48806;DHT22;34625;47.176;27.548;2023-05-07T13:37:54;24.50;51.40
48806;DHT22;34625;47.176;27.548;2023-05-07T13:40:21;24.30;52.60
48806;DHT22;34625;47.176;27.548;2023-05-07T13:42:48;24.40;52.00
48806;DHT22;34625;47.176;27.548;2023-05-07T13:45:14;24.40;52.70
48806;DHT22;34625;47.176;27.548;2023-05-07T13:47:41;24.40;51.50
48806;DHT22;34625;47.176;27.548;2023-05-07T13:50:08;24.40;53.30
48806;DHT22;34625;47.176;27.548;2023-05-07T13:52:34;24.40;53.80
48806;DHT22;34625;47.176;27.548;2023-05-07T13:55:00;24.40;53.90
48806;DHT22;34625;47.176;27.548;2023-05-07T13:57:26;24.30;53.90
48806;DHT22;34625;47.176;27.548;2023-05-07T13:59:52;24.40;53.70
48806;DHT22;34625;47.176;27.548;2023-05-07T14:02:18;24.40;55.10
48806;DHT22;34625;47.176;27.548;2023-05-07T14:04:45;24.50;54.30
48806;DHT22;34625;47.176;27.548;2023-05-07T14:07:11;24.50;50.20
48806;DHT22;34625;47.176;27.548;2023-05-07T14:09:37;24.50;50.00
48806;DHT22;34625;47.176;27.548;2023-05-07T14:12:03;24.70;50.00
48806;DHT22;34625;47.176;27.548;2023-05-07T14:14:29;24.70;49.10
48806;DHT22;34625;47.176;27.548;2023-05-07T14:16:55;24.90;52.00
48806;DHT22;34625;47.176;27.548;2023-05-07T14:19:21;25.00;50.30
48806;DHT22;34625;47.176;27.548;2023-05-07T14:21:48;25.00;49.30
48806;DHT22;34625;47.176;27.548;2023-05-07T14:24:14;25.00;48.00
48806;DHT22;34625;47.176;27.548;2023-05-07T14:26:40;25.10;48.60
48806;DHT22;34625;47.176;27.548;2023-05-07T14:29:06;25.00;49.50
48806;DHT22;34625;47.176;27.548;2023-05-07T14:31:32;25.00;49.20
48806;DHT22;34625;47.176;27.548;2023-05-07T14:33:59;25.00;51.10
48806;DHT22;34625;47.176;27.548;2023-05-07T14:36:25;25.10;53.60
48806;DHT22;34625;47.176;27.548;2023-05-07T14:38:55;25.00;53.90
48806;DHT22;34625;47.176;27.548;2023-05-07T14:41:25;24.90;53.60
48806;DHT22;34625;47.176;27.548;2023-05-07T14:43:51;24.90;53.30
48806;DHT22;34625;47.176;27.548;2023-05-07T14:46:20;24.90;53.30
48806;DHT22;34625;47.176;27.548;2023-05-07T14:48:46;25.00;54.70
48806;DHT22;34625;47.176;27.548;2023-05-07T14:51:13;25.00;53.90
48806;DHT22;34625;47.176;27.548;2023-05-07T14:53:41;25.00;51.90
48806;DHT22;34625;47.176;27.548;2023-05-07T14:56:07;24.90;51.20
48806;DHT22;34625;47.176;27.548;2023-05-07T14:58:34;24.90;51.10
48806;DHT22;34625;47.176;27.548;2023-05-07T15:01:01;24.80;50.80
48806;DHT22;34625;47.176;27.548;2023-05-07T15:03:27;24.70;50.70
48806;DHT22;34625;47.176;27.548;2023-05-07T15:05:53;24.80;50.60
48806;DHT22;34625;47.176;27.548;2023-05-07T15:08:19;24.90;50.60
48806;DHT22;34625;47.176;27.548;2023-05-07T15:10:45;24.80;50.50
48806;DHT22;34625;47.176;27.548;2023-05-07T15:13:12;24.80;50.50
48806;DHT22;34625;47.176;27.548;2023-05-07T15:15:39;24.80;50.30
48806;DHT22;34625;47.176;27.548;2023-05-07T15:18:05;24.90;50.30
48806;DHT22;34625;47.176;27.548;2023-05-07T15:20:31;24.90;50.00
48806;DHT22;34625;47.176;27.548;2023-05-07T15:22:57;24.80;50.30
48806;DHT22;34625;47.176;27.548;2023-05-07T15:25:23;24.80;50.50
48806;DHT22;34625;47.176;27.548;2023-05-07T15:27:50;24.80;50.90
48806;DHT22;34625;47.176;27.548;2023-05-07T15:30:16;24.90;51.50
48806;DHT22;34625;47.176;27.548;2023-05-07T15:32:42;24.90;50.90